createdAt,value
2022-11-29T00:00:17.023Z,55.40
2022-11-29T00:02:38.852Z,46.47
2022-11-29T00:04:41.409Z,50.85
2022-11-29T00:06:43.386Z,40.30
2022-11-29T00:08:46.021Z,50.60
2022-11-29T00:12:50.474Z,46.80
2022-11-29T00:14:52.228Z,48.50
2022-11-29T00:16:59.299Z,47.50
2022-11-29T00:19:01.985Z,48.50
2022-11-29T00:21:08.023Z,53.63
2022-11-29T00:23:10.632Z,50.97
2022-11-29T00:25:12.423Z,48.88
2022-11-29T00:27:14.230Z,51.28
2022-11-29T00:29:16.698Z,50.33
2022-11-29T00:31:21.175Z,52.33
2022-11-29T00:33:22.950Z,51.78
2022-11-29T00:35:25.080Z,49.20
2022-11-29T00:37:26.831Z,46.85
2022-11-29T00:39:29.001Z,51.72
2022-11-29T00:41:31.342Z,48.45
2022-11-29T00:43:33.336Z,49.53
2022-11-29T00:45:35.489Z,49.33
2022-11-29T00:47:37.463Z,48.85
2022-11-29T00:49:39.661Z,53.00
2022-11-29T00:51:41.458Z,49.22
2022-11-29T00:53:43.229Z,49.08
2022-11-29T00:55:47.885Z,48.35
2022-11-29T00:57:49.704Z,51.45
2022-11-29T00:59:51.634Z,49.33
2022-11-29T01:01:53.737Z,47.30
2022-11-29T01:03:55.506Z,50.97
2022-11-29T01:06:06.077Z,51.03
2022-11-29T01:08:08.339Z,48.78
2022-11-29T01:10:10.263Z,51.65
2022-11-29T01:12:12.220Z,53.05
2022-11-29T01:14:14.519Z,53.50
2022-11-29T01:16:16.794Z,51.63
2022-11-29T01:18:18.593Z,48.03
2022-11-29T01:20:20.910Z,52.00
2022-11-29T01:22:22.689Z,53.57
2022-11-29T01:24:24.915Z,50.47
2022-11-29T01:26:29.166Z,52.63
2022-11-29T01:28:31.631Z,49.80
2022-11-29T01:30:33.468Z,51.13
2022-11-29T01:32:36.791Z,49.63
2022-11-29T01:36:40.640Z,46.45
2022-11-29T01:38:43.079Z,52.70
2022-11-29T01:40:45.715Z,55.83
2022-11-29T01:42:47.501Z,48.80
2022-11-29T01:44:49.626Z,50.47
2022-11-29T01:46:51.607Z,54.08
2022-11-29T01:49:00.479Z,49.13
2022-11-29T01:51:03.191Z,51.22
2022-11-29T01:53:06.971Z,56.28
2022-11-29T01:55:10.229Z,54.90
2022-11-29T01:57:13.205Z,57.17
2022-11-29T01:59:19.549Z,55.42
2022-11-29T02:01:21.607Z,58.30
2022-11-29T02:03:24.002Z,53.30
2022-11-29T02:05:26.617Z,55.17
2022-11-29T02:07:28.469Z,53.92
2022-11-29T02:09:30.674Z,51.40
2022-11-29T02:11:56.507Z,55.25
2022-11-29T02:14:22.112Z,56.80
2022-11-29T02:16:35.614Z,51.35
2022-11-29T02:18:58.794Z,52.35
2022-11-29T02:23:41.686Z,57.33
2022-11-29T02:28:38.428Z,51.33
2022-11-29T02:30:59.838Z,53.72
2022-11-29T02:33:25.982Z,56.80
2022-11-29T02:35:40.321Z,51.47
2022-11-29T02:38:06.724Z,58.30
2022-11-29T02:41:18.636Z,53.50
2022-11-29T02:43:34.934Z,48.83
2022-11-29T02:45:55.020Z,51.83
2022-11-29T02:48:08.450Z,55.58
2022-11-29T02:52:46.086Z,52.30
2022-11-29T02:55:19.449Z,50.00
2022-11-29T02:57:33.818Z,52.85
2022-11-29T03:00:05.179Z,52.67
2022-11-29T03:02:14.601Z,57.15
2022-11-29T03:04:43.538Z,51.90
2022-11-29T03:06:58.973Z,54.67
2022-11-29T03:09:26.155Z,48.50
2022-11-29T03:11:59.787Z,46.65
2022-11-29T03:14:13.449Z,49.72
2022-11-29T03:16:44.119Z,49.50
2022-11-29T03:19:04.331Z,47.60
2022-11-29T03:21:19.595Z,45.75
2022-11-29T03:23:36.266Z,48.95
2022-11-29T03:26:02.555Z,49.90
2022-11-29T03:28:18.717Z,48.50
2022-11-29T03:30:21.773Z,52.00
2022-11-29T03:32:34.974Z,49.30
2022-11-29T03:35:14.780Z,43.42
2022-11-29T03:37:25.627Z,48.00
2022-11-29T03:39:41.542Z,46.53
2022-11-29T03:41:59.442Z,48.05
2022-11-29T03:44:28.367Z,48.50
2022-11-29T03:46:58.546Z,47.70
2022-11-29T03:49:07.522Z,49.60
2022-11-29T03:51:28.433Z,42.78
2022-11-29T03:53:39.174Z,48.30
2022-11-29T03:56:02.146Z,50.17
2022-11-29T03:58:27.340Z,49.08
2022-11-29T04:00:39.425Z,47.70
2022-11-29T04:03:11.600Z,48.85
2022-11-29T04:05:21.965Z,44.38
2022-11-29T04:07:42.922Z,49.03
2022-11-29T04:10:14.827Z,44.60
2022-11-29T04:12:54.739Z,47.00
2022-11-29T04:15:10.515Z,45.22
2022-11-29T04:17:53.346Z,43.67
2022-11-29T04:20:36.299Z,49.85
2022-11-29T04:22:47.858Z,48.25
2022-11-29T04:25:22.759Z,48.33
2022-11-29T04:27:28.065Z,45.50
2022-11-29T04:30:05.440Z,53.15
2022-11-29T04:32:10.613Z,48.30
2022-11-29T04:34:34.686Z,47.53
2022-11-29T04:36:55.008Z,53.92
2022-11-29T04:39:03.142Z,49.00
2022-11-29T04:41:25.822Z,48.20
2022-11-29T04:43:48.672Z,45.53
2022-11-29T04:46:02.613Z,42.03
2022-11-29T04:48:21.591Z,48.13
2022-11-29T04:50:33.796Z,48.55
2022-11-29T04:52:47.579Z,47.75
2022-11-29T04:55:00.072Z,45.30
2022-11-29T04:57:08.886Z,50.80
2022-11-29T04:59:24.878Z,53.00
2022-11-29T05:01:41.050Z,46.63
2022-11-29T05:03:57.876Z,48.33
2022-11-29T05:06:37.505Z,49.92
2022-11-29T05:09:08.509Z,51.13
2022-11-29T05:11:45.029Z,50.58
2022-11-29T05:14:04.769Z,46.70
2022-11-29T05:16:16.101Z,52.88
2022-11-29T05:18:34.620Z,48.70
2022-11-29T05:21:00.358Z,55.35
2022-11-29T05:23:31.990Z,56.97
2022-11-29T05:25:57.156Z,51.88
2022-11-29T05:28:41.190Z,52.88
2022-11-29T05:31:17.313Z,56.17
2022-11-29T05:33:43.619Z,57.33
2022-11-29T05:36:15.185Z,54.33
2022-11-29T05:38:42.277Z,57.10
2022-11-29T05:40:58.138Z,56.22
2022-11-29T05:43:27.725Z,56.13
2022-11-29T05:45:35.011Z,50.03
2022-11-29T05:47:48.976Z,66.47
2022-11-29T05:50:32.062Z,57.20
2022-11-29T05:52:42.373Z,52.83
2022-11-29T05:54:59.003Z,56.53
2022-11-29T05:57:38.198Z,54.25
2022-11-29T05:59:42.173Z,58.35
2022-11-29T06:01:58.870Z,55.88
2022-11-29T06:04:21.129Z,57.85
2022-11-29T06:06:35.052Z,58.55
2022-11-29T06:08:58.597Z,58.65
2022-11-29T06:11:14.151Z,57.25
2022-11-29T06:13:38.684Z,59.55
2022-11-29T06:16:09.208Z,60.28
2022-11-29T06:18:48.581Z,56.63
2022-11-29T06:21:16.402Z,61.17
2022-11-29T06:23:25.490Z,57.35
2022-11-29T06:26:04.136Z,64.20
2022-11-29T06:28:23.054Z,62.80
2022-11-29T06:30:30.009Z,57.95
2022-11-29T06:32:57.812Z,58.72
2022-11-29T06:35:07.203Z,56.85
2022-11-29T06:37:40.205Z,59.10
2022-11-29T06:39:42.727Z,58.95
2022-11-29T06:41:44.758Z,62.67
2022-11-29T06:43:47.483Z,46.63
2022-11-29T06:45:52.770Z,62.05
2022-11-29T06:48:09.854Z,64.05
2022-11-29T06:50:33.702Z,63.35
2022-11-29T06:52:48.997Z,64.70
2022-11-29T06:55:12.363Z,59.50
2022-11-29T06:57:46.229Z,67.38
2022-11-29T06:59:57.369Z,54.63
2022-11-29T07:02:27.980Z,61.75
2022-11-29T07:04:46.712Z,62.05
2022-11-29T07:06:48.923Z,61.13
2022-11-29T07:08:56.931Z,65.50
2022-11-29T07:11:00.519Z,67.20
2022-11-29T07:13:02.785Z,68.78
2022-11-29T07:15:05.209Z,65.32
2022-11-29T07:17:54.915Z,63.47
2022-11-29T07:19:56.662Z,60.05
2022-11-29T07:22:36.254Z,64.28
2022-11-29T07:24:47.595Z,63.25
2022-11-29T07:26:59.813Z,61.08
2022-11-29T07:29:21.901Z,56.40
2022-11-29T07:31:31.560Z,62.88
2022-11-29T07:33:42.141Z,61.40
2022-11-29T07:35:56.954Z,58.03
2022-11-29T07:38:16.812Z,55.85
2022-11-29T07:40:40.770Z,53.67
2022-11-29T07:43:15.155Z,60.55
2022-11-29T07:45:32.043Z,63.28
2022-11-29T07:47:35.916Z,57.20
2022-11-29T07:49:38.156Z,59.40
2022-11-29T07:51:40.225Z,63.40
2022-11-29T07:53:44.269Z,58.80
2022-11-29T07:55:47.020Z,51.45
2022-11-29T07:57:49.382Z,59.22
2022-11-29T07:59:51.712Z,52.30
2022-11-29T08:01:54.667Z,54.83
2022-11-29T08:03:58.077Z,53.88
2022-11-29T08:05:59.860Z,55.55
2022-11-29T08:08:01.802Z,55.53
2022-11-29T08:10:07.176Z,60.22
2022-11-29T08:12:08.955Z,54.05
2022-11-29T08:14:11.015Z,55.20
2022-11-29T08:16:17.942Z,49.55
2022-11-29T08:18:20.638Z,53.20
2022-11-29T08:22:24.855Z,56.55
2022-11-29T08:24:26.947Z,52.40
2022-11-29T08:26:31.798Z,54.10
2022-11-29T08:28:33.741Z,50.42
2022-11-29T08:30:38.367Z,50.97
2022-11-29T08:32:41.207Z,53.65
2022-11-29T08:34:49.436Z,49.85
2022-11-29T08:36:58.460Z,55.33
2022-11-29T08:39:09.254Z,53.58
2022-11-29T08:41:15.671Z,53.70
2022-11-29T08:43:17.420Z,54.22
2022-11-29T08:45:19.661Z,58.92
2022-11-29T08:47:37.078Z,55.28
2022-11-29T08:50:00.694Z,53.03
2022-11-29T08:52:24.093Z,53.17
2022-11-29T08:54:25.688Z,57.25
2022-11-29T08:58:50.487Z,54.50
2022-11-29T09:02:54.858Z,52.33
2022-11-29T09:04:56.963Z,54.30
2022-11-29T09:06:59.111Z,55.20
2022-11-29T09:09:01.638Z,46.97
2022-11-29T09:11:17.211Z,49.65
2022-11-29T09:13:19.607Z,47.95
2022-11-29T09:15:21.883Z,54.28
2022-11-29T09:17:24.802Z,49.65
2022-11-29T09:19:27.347Z,47.15
2022-11-29T09:21:31.354Z,49.45
2022-11-29T09:23:33.406Z,45.10
2022-11-29T09:25:35.576Z,48.42
2022-11-29T09:27:37.616Z,46.40
2022-11-29T09:29:39.491Z,47.57
2022-11-29T09:31:45.205Z,50.92
2022-11-29T09:33:48.115Z,50.38
2022-11-29T09:35:50.309Z,49.80
2022-11-29T09:37:52.483Z,51.60
2022-11-29T09:39:57.144Z,51.40
2022-11-29T09:42:31.407Z,46.08
2022-11-29T09:44:45.694Z,50.47
2022-11-29T09:47:16.295Z,47.65
2022-11-29T09:49:35.687Z,46.25
2022-11-29T09:52:04.078Z,45.25
2022-11-29T09:54:36.178Z,49.75
2022-11-29T09:56:44.247Z,46.75
2022-11-29T09:58:58.963Z,45.97
2022-11-29T10:01:05.396Z,48.45
2022-11-29T10:03:18.659Z,50.00
2022-11-29T10:05:30.309Z,46.25
2022-11-29T10:07:38.838Z,48.35
2022-11-29T10:09:49.893Z,44.88
2022-11-29T10:12:13.874Z,43.80
2022-11-29T10:14:23.068Z,43.08
2022-11-29T10:16:29.991Z,41.45
2022-11-29T10:18:38.847Z,47.25
2022-11-29T10:20:48.822Z,43.08
2022-11-29T10:23:22.534Z,45.10
2022-11-29T10:25:48.865Z,45.07
2022-11-29T10:27:52.740Z,45.65
2022-11-29T10:29:54.822Z,39.53
2022-11-29T10:31:59.334Z,48.67
2022-11-29T10:34:08.118Z,42.28
2022-11-29T10:36:19.187Z,37.65
2022-11-29T10:38:36.284Z,39.65
2022-11-29T10:40:42.080Z,43.58
2022-11-29T10:42:49.920Z,40.58
2022-11-29T10:44:51.910Z,42.13
2022-11-29T10:46:55.883Z,44.22
2022-11-29T10:49:06.366Z,40.55
2022-11-29T10:51:16.953Z,43.03
2022-11-29T10:53:23.498Z,42.50
2022-11-29T10:55:27.725Z,43.80
2022-11-29T10:57:29.832Z,45.17
2022-11-29T10:59:33.427Z,43.72
2022-11-29T11:01:42.229Z,46.00
2022-11-29T11:03:55.371Z,41.75
2022-11-29T11:06:06.122Z,37.78
2022-11-29T11:08:17.489Z,39.03
2022-11-29T11:10:27.272Z,40.72
2022-11-29T11:12:32.947Z,40.70
2022-11-29T11:14:37.737Z,43.47
2022-11-29T11:16:39.587Z,42.88
2022-11-29T11:18:41.811Z,47.80
2022-11-29T11:20:51.423Z,44.25
2022-11-29T11:23:20.647Z,44.20
2022-11-29T11:25:34.781Z,47.50
2022-11-29T11:27:42.237Z,46.05
2022-11-29T11:29:45.190Z,39.13
2022-11-29T11:31:58.168Z,43.40
2022-11-29T11:34:26.479Z,38.80
2022-11-29T11:36:28.750Z,41.90
2022-11-29T11:38:31.099Z,42.15
2022-11-29T11:40:34.614Z,33.38
2022-11-29T11:42:40.482Z,46.20
2022-11-29T11:44:49.963Z,47.15
2022-11-29T11:46:52.666Z,41.55
2022-11-29T11:50:59.366Z,45.75
2022-11-29T11:53:06.536Z,45.22
2022-11-29T11:55:45.759Z,47.03
2022-11-29T11:58:09.034Z,41.95
2022-11-29T12:01:04.045Z,45.50
2022-11-29T12:03:28.722Z,40.70
2022-11-29T12:05:30.799Z,40.78
2022-11-29T12:08:06.829Z,34.15
2022-11-29T12:10:10.520Z,38.88
2022-11-29T12:12:23.173Z,40.25
2022-11-29T12:14:47.600Z,41.33
2022-11-29T12:16:58.916Z,41.53
2022-11-29T12:19:17.913Z,42.83
2022-11-29T12:21:27.467Z,43.83
2022-11-29T12:23:52.781Z,47.03
2022-11-29T12:26:00.333Z,40.95
2022-11-29T12:28:02.392Z,46.75
2022-11-29T12:30:12.187Z,42.60
2022-11-29T12:32:26.709Z,45.83
2022-11-29T12:34:56.377Z,45.28
2022-11-29T12:37:35.764Z,46.40
2022-11-29T12:39:50.799Z,41.47
2022-11-29T12:42:01.247Z,45.03
2022-11-29T12:44:26.839Z,42.90
2022-11-29T12:46:30.301Z,43.20
2022-11-29T12:49:00.377Z,41.97
2022-11-29T12:51:07.118Z,38.95
2022-11-29T12:53:27.118Z,40.33
2022-11-29T12:55:47.859Z,39.70
2022-11-29T12:57:59.123Z,42.50
2022-11-29T13:00:10.115Z,44.97
2022-11-29T13:02:39.562Z,44.72
2022-11-29T13:05:12.303Z,42.85
2022-11-29T13:07:28.772Z,41.20
2022-11-29T13:10:02.863Z,40.97
2022-11-29T13:12:13.110Z,43.78
2022-11-29T13:14:43.100Z,43.13
2022-11-29T13:16:58.879Z,41.55
2022-11-29T13:19:14.940Z,46.10
2022-11-29T13:21:28.267Z,42.30
2022-11-29T13:24:10.672Z,43.65
2022-11-29T13:26:13.929Z,40.42
2022-11-29T13:30:35.019Z,40.53
2022-11-29T13:32:51.660Z,44.70
2022-11-29T13:34:58.751Z,45.33
2022-11-29T13:37:20.096Z,38.88
2022-11-29T13:39:34.654Z,41.38
2022-11-29T13:42:15.722Z,47.35
2022-11-29T13:44:33.040Z,41.67
2022-11-29T13:46:54.776Z,41.63
2022-11-29T13:48:57.187Z,46.95
2022-11-29T13:51:27.056Z,48.30
2022-11-29T13:53:48.221Z,45.38
2022-11-29T13:56:02.514Z,44.53
2022-11-29T13:58:16.642Z,46.80
2022-11-29T14:00:39.669Z,42.40
2022-11-29T14:02:42.070Z,46.55
2022-11-29T14:04:46.334Z,43.13
2022-11-29T14:06:50.245Z,59.13
2022-11-29T14:09:21.854Z,70.50
2022-11-29T14:11:13.862Z,48.88
2022-11-29T14:13:16.459Z,47.10
2022-11-29T14:15:28.355Z,40.22
2022-11-29T14:17:35.393Z,42.03
2022-11-29T14:19:37.315Z,42.28
2022-11-29T14:22:06.805Z,37.42
2022-11-29T14:24:36.825Z,39.17
2022-11-29T14:26:38.713Z,38.47
2022-11-29T14:28:41.532Z,45.70
2022-11-29T14:30:49.209Z,43.45
2022-11-29T14:33:03.986Z,46.78
2022-11-29T14:35:12.019Z,47.33
2022-11-29T14:37:31.037Z,43.22
2022-11-29T14:39:48.309Z,46.65
2022-11-29T14:42:04.779Z,41.00
2022-11-29T14:44:18.798Z,43.42
2022-11-29T14:46:29.504Z,44.78
2022-11-29T14:48:33.515Z,41.40
2022-11-29T14:50:38.204Z,41.70
2022-11-29T14:52:50.527Z,40.92
2022-11-29T14:54:59.971Z,39.83
2022-11-29T14:57:39.917Z,43.85
2022-11-29T14:59:51.686Z,48.83
2022-11-29T15:01:54.982Z,40.95
2022-11-29T15:03:57.119Z,40.30
2022-11-29T15:06:14.148Z,44.00
2022-11-29T15:08:50.196Z,41.17
2022-11-29T15:10:57.350Z,41.17
2022-11-29T15:13:00.936Z,46.88
2022-11-29T15:15:21.843Z,41.45
2022-11-29T15:17:49.296Z,42.80
2022-11-29T15:20:14.199Z,44.30
2022-11-29T15:22:23.080Z,42.90
2022-11-29T15:24:28.763Z,41.58
2022-11-29T15:26:32.243Z,43.30
2022-11-29T15:28:34.087Z,41.83
2022-11-29T15:30:39.579Z,42.53
2022-11-29T15:32:44.535Z,40.92
2022-11-29T15:34:51.826Z,45.47
2022-11-29T15:36:53.955Z,44.08
2022-11-29T15:38:59.245Z,40.95
2022-11-29T15:41:03.443Z,43.63
2022-11-29T15:43:34.686Z,41.22
2022-11-29T15:47:41.766Z,47.42
2022-11-29T15:49:44.190Z,43.92
2022-11-29T15:51:51.459Z,44.30
2022-11-29T15:54:13.069Z,46.90
2022-11-29T15:56:22.375Z,44.78
2022-11-29T15:58:27.635Z,43.08
2022-11-29T16:00:31.608Z,46.30
2022-11-29T16:02:37.215Z,45.10
2022-11-29T16:04:46.488Z,43.67
2022-11-29T16:07:04.181Z,47.85
2022-11-29T16:09:11.931Z,46.35
2022-11-29T16:11:17.594Z,43.67
2022-11-29T16:13:31.815Z,43.47
2022-11-29T16:15:37.063Z,44.83
2022-11-29T16:17:40.498Z,39.13
2022-11-29T16:19:43.881Z,41.13
2022-11-29T16:21:45.710Z,45.03
2022-11-29T16:23:49.099Z,44.70
2022-11-29T16:25:59.190Z,45.60
2022-11-29T16:28:01.475Z,48.25
2022-11-29T16:30:05.296Z,42.63
2022-11-29T16:32:26.097Z,44.08
2022-11-29T16:34:32.104Z,44.13
2022-11-29T16:36:35.423Z,50.60
2022-11-29T16:40:40.524Z,43.85
2022-11-29T16:42:48.911Z,48.22
2022-11-29T16:45:28.641Z,45.05
2022-11-29T16:48:00.285Z,44.10
2022-11-29T16:50:02.081Z,43.92
2022-11-29T16:52:29.304Z,42.70
2022-11-29T16:54:35.944Z,43.10
2022-11-29T16:56:39.000Z,44.13
2022-11-29T16:59:25.560Z,47.42
2022-11-29T17:01:28.795Z,46.30
2022-11-29T17:03:32.318Z,47.80
2022-11-29T17:05:35.718Z,45.75
2022-11-29T17:07:40.426Z,45.53
2022-11-29T17:09:57.055Z,42.45
2022-11-29T17:12:01.908Z,42.35
2022-11-29T17:14:04.089Z,45.60
2022-11-29T17:16:11.800Z,46.63
2022-11-29T17:18:15.024Z,48.35
2022-11-29T17:20:17.392Z,43.10
2022-11-29T17:22:19.673Z,45.97
2022-11-29T17:24:23.110Z,44.50
2022-11-29T17:26:26.871Z,49.45
2022-11-29T17:28:28.899Z,47.08
2022-11-29T17:30:32.592Z,52.95
2022-11-29T17:32:35.706Z,43.85
2022-11-29T17:34:37.510Z,42.72
2022-11-29T17:36:40.541Z,45.25
2022-11-29T17:38:44.241Z,45.65
2022-11-29T17:40:46.386Z,45.67
2022-11-29T17:42:50.673Z,45.10
2022-11-29T17:44:52.816Z,42.15
2022-11-29T17:46:58.171Z,46.00
2022-11-29T17:49:02.722Z,45.13
2022-11-29T17:51:13.542Z,44.45
2022-11-29T17:53:34.711Z,44.80
2022-11-29T17:55:42.494Z,47.45
2022-11-29T17:57:44.341Z,49.58
2022-11-29T17:59:46.763Z,46.10
2022-11-29T18:01:52.320Z,42.95
2022-11-29T18:03:58.856Z,47.85
2022-11-29T18:06:01.295Z,46.90
2022-11-29T18:08:04.362Z,44.87
2022-11-29T18:10:08.144Z,46.55
2022-11-29T18:12:10.693Z,45.00
2022-11-29T18:14:14.053Z,47.45
2022-11-29T18:16:18.976Z,49.72
2022-11-29T18:18:22.082Z,44.83
2022-11-29T18:20:23.969Z,45.10
2022-11-29T18:22:28.020Z,46.83
2022-11-29T18:24:30.203Z,42.05
2022-11-29T18:26:33.931Z,44.20
2022-11-29T18:28:38.085Z,44.00
2022-11-29T18:30:40.044Z,43.30
2022-11-29T18:32:42.732Z,41.75
2022-11-29T18:34:46.338Z,49.53
2022-11-29T18:36:49.536Z,47.53
2022-11-29T18:38:59.575Z,45.92
2022-11-29T18:41:13.873Z,47.55
2022-11-29T18:43:16.860Z,42.78
2022-11-29T18:45:18.692Z,39.90
2022-11-29T18:47:20.954Z,40.55
2022-11-29T18:49:23.449Z,38.70
2022-11-29T18:51:25.830Z,40.83
2022-11-29T18:53:27.657Z,42.25
2022-11-29T18:55:29.465Z,41.17
2022-11-29T18:57:31.609Z,41.13
2022-11-29T18:59:33.461Z,44.55
2022-11-29T19:01:41.016Z,39.72
2022-11-29T19:03:50.476Z,43.85
2022-11-29T19:05:54.388Z,45.60
2022-11-29T19:07:59.570Z,44.03
2022-11-29T19:10:03.884Z,39.45
2022-11-29T19:12:06.640Z,40.92
2022-11-29T19:14:14.114Z,44.47
2022-11-29T19:16:18.615Z,42.03
2022-11-29T19:18:21.691Z,45.33
2022-11-29T19:20:23.489Z,43.20
2022-11-29T19:22:26.071Z,40.08
2022-11-29T19:24:27.915Z,50.50
2022-11-29T19:28:36.124Z,44.85
2022-11-29T19:30:38.115Z,43.85
2022-11-29T19:32:45.152Z,45.22
2022-11-29T19:34:50.225Z,47.33
2022-11-29T19:36:52.389Z,45.65
2022-11-29T19:38:57.780Z,43.28
2022-11-29T19:41:13.437Z,44.15
2022-11-29T19:43:15.996Z,43.50
2022-11-29T19:45:18.416Z,39.60
2022-11-29T19:49:22.604Z,42.95
2022-11-29T19:51:27.389Z,42.47
2022-11-29T19:53:29.517Z,44.75
2022-11-29T19:55:31.410Z,48.47
2022-11-29T19:57:34.006Z,45.72
2022-11-29T19:59:36.019Z,45.45
2022-11-29T20:01:41.445Z,42.73
2022-11-29T20:03:45.333Z,51.80
2022-11-29T20:05:56.045Z,45.50
2022-11-29T20:07:57.959Z,40.85
2022-11-29T20:10:00.629Z,47.17
2022-11-29T20:12:04.320Z,43.70
2022-11-29T20:14:07.478Z,40.92
2022-11-29T20:16:12.583Z,42.60
2022-11-29T20:18:14.456Z,45.25
2022-11-29T20:20:19.792Z,47.10
2022-11-29T20:22:22.079Z,45.95
2022-11-29T20:24:24.011Z,43.20
2022-11-29T20:26:27.360Z,43.58
2022-11-29T20:28:30.447Z,44.78
2022-11-29T20:30:33.623Z,46.00
2022-11-29T20:32:36.062Z,44.63
2022-11-29T20:34:39.699Z,42.53
2022-11-29T20:37:01.239Z,47.35
2022-11-29T20:39:41.020Z,44.83
2022-11-29T20:41:51.234Z,42.05
2022-11-29T20:43:58.091Z,45.00
2022-11-29T20:46:00.151Z,45.28
2022-11-29T20:48:13.250Z,43.33
2022-11-29T20:50:27.189Z,46.75
2022-11-29T20:53:07.838Z,42.90
2022-11-29T20:55:10.089Z,44.55
2022-11-29T20:57:11.889Z,43.55
2022-11-29T20:59:14.155Z,34.88
2022-11-29T21:01:16.125Z,41.28
2022-11-29T21:03:19.710Z,44.05
2022-11-29T21:05:22.039Z,44.00
2022-11-29T21:07:23.906Z,50.28
2022-11-29T21:09:25.741Z,45.47
2022-11-29T21:11:28.499Z,50.15
2022-11-29T21:13:31.967Z,47.95
2022-11-29T21:15:34.296Z,43.47
2022-11-29T21:17:36.837Z,45.58
2022-11-29T21:19:40.732Z,47.78
2022-11-29T21:21:57.044Z,46.78
2022-11-29T21:24:10.163Z,48.88
2022-11-29T21:26:27.782Z,46.55
2022-11-29T21:28:42.580Z,46.50
2022-11-29T21:30:44.751Z,43.55
2022-11-29T21:32:47.477Z,47.15
2022-11-29T21:34:49.720Z,43.20
2022-11-29T21:36:57.113Z,46.05
2022-11-29T21:39:03.656Z,45.15
2022-11-29T21:41:06.948Z,44.58
2022-11-29T21:43:08.853Z,45.83
2022-11-29T21:45:15.313Z,43.03
2022-11-29T21:47:17.805Z,50.50
2022-11-29T21:49:19.621Z,46.72
2022-11-29T21:51:21.866Z,44.20
2022-11-29T21:53:23.803Z,46.60
2022-11-29T21:55:31.758Z,46.63
2022-11-29T21:57:34.622Z,43.50
2022-11-29T21:59:36.447Z,45.15
2022-11-29T22:01:38.367Z,44.42
2022-11-29T22:03:43.690Z,48.53
2022-11-29T22:05:45.570Z,47.72
2022-11-29T22:07:47.381Z,49.63
2022-11-29T22:09:49.585Z,45.38
2022-11-29T22:11:51.454Z,46.13
2022-11-29T22:14:16.524Z,44.63
2022-11-29T22:16:18.876Z,50.13
2022-11-29T22:18:20.811Z,42.13
2022-11-29T22:20:22.839Z,48.60
2022-11-29T22:22:27.964Z,44.88
2022-11-29T22:24:36.844Z,41.30
2022-11-29T22:26:39.189Z,39.20
2022-11-29T22:28:41.390Z,41.92
2022-11-29T22:30:43.196Z,42.13
2022-11-29T22:32:45.371Z,49.60
2022-11-29T22:34:47.476Z,41.50
2022-11-29T22:36:49.444Z,42.00
2022-11-29T22:38:51.639Z,43.75
2022-11-29T22:40:53.635Z,44.15
2022-11-29T22:42:55.450Z,40.73
2022-11-29T22:44:57.647Z,40.00
2022-11-29T22:46:59.530Z,41.50
2022-11-29T22:49:02.055Z,37.95
2022-11-29T22:51:21.494Z,40.75
2022-11-29T22:53:23.260Z,43.00
2022-11-29T22:55:25.166Z,42.60
2022-11-29T22:57:27.258Z,37.60
2022-11-29T22:59:29.665Z,41.58
2022-11-29T23:01:34.865Z,42.55
2022-11-29T23:03:38.737Z,41.33
2022-11-29T23:05:40.565Z,40.85
2022-11-29T23:07:43.281Z,38.63
2022-11-29T23:09:45.094Z,42.60
2022-11-29T23:11:52.010Z,30.17
2022-11-29T23:13:54.400Z,36.97
2022-11-29T23:15:56.166Z,43.50
2022-11-29T23:17:58.707Z,42.15
2022-11-29T23:20:00.525Z,43.70
2022-11-29T23:22:02.687Z,31.80
2022-11-29T23:24:05.233Z,43.85
2022-11-29T23:26:08.169Z,43.28
2022-11-29T23:28:10.290Z,40.85
2022-11-29T23:30:12.714Z,42.80
2022-11-29T23:32:14.680Z,42.47
2022-11-29T23:34:17.021Z,44.17
2022-11-29T23:36:19.095Z,42.55
2022-11-29T23:38:21.050Z,44.42
2022-11-29T23:40:23.166Z,44.40
2022-11-29T23:42:25.680Z,44.58
2022-11-29T23:44:27.478Z,42.38
2022-11-29T23:46:29.598Z,40.00
2022-11-29T23:48:31.407Z,43.08
2022-11-29T23:50:33.411Z,44.40
2022-11-29T23:52:35.533Z,45.25
2022-11-29T23:54:38.396Z,41.15
2022-11-29T23:56:40.565Z,41.50
2022-11-29T23:58:43.330Z,43.53
